createdAt,value
2017-11-25T14:51:59.115Z,71.11
2017-11-25T14:53:05.012Z,74.17
2017-11-25T14:54:10.140Z,75.21
2017-11-25T14:55:14.689Z,74.82
2017-11-25T14:56:19.954Z,74.14
2017-11-25T14:57:25.632Z,76.07
2017-11-25T14:58:30.051Z,78.33
2017-11-25T14:59:34.284Z,78.22
2017-11-25T15:00:39.499Z,72.89
2017-11-25T15:01:45.491Z,71.75
2017-11-25T15:02:50.087Z,70.88
2017-11-25T15:03:55.746Z,69.94
2017-11-25T15:05:00.855Z,69.60
2017-11-25T15:06:07.400Z,69.86
2017-11-25T15:07:11.765Z,69.71
2017-11-25T15:08:17.365Z,69.54
2017-11-25T15:09:22.694Z,69.56
2017-11-25T15:10:26.985Z,69.76
2017-11-25T15:11:33.259Z,69.85
2017-11-25T15:12:38.549Z,69.87
2017-11-25T15:13:44.148Z,70.05
2017-11-25T15:14:48.845Z,69.96
2017-11-25T15:15:55.588Z,69.99
2017-11-25T15:17:00.547Z,70.06
2017-11-25T15:18:04.991Z,70.39
2017-11-25T15:19:09.300Z,70.74
2017-11-25T15:20:14.989Z,71.09
2017-11-25T15:21:21.651Z,71.34
2017-11-25T15:22:26.676Z,71.61
2017-11-25T15:23:31.909Z,71.79
2017-11-25T15:24:37.152Z,71.80
2017-11-25T15:25:41.954Z,71.86
2017-11-25T15:26:46.500Z,71.99
2017-11-25T15:27:51.093Z,72.28
2017-11-25T15:28:55.860Z,72.38
2017-11-25T15:30:01.417Z,72.52
2017-11-25T15:31:06.064Z,72.70
2017-11-25T15:32:11.284Z,72.76
2017-11-25T15:33:16.594Z,72.75
2017-11-25T15:34:21.005Z,72.66
2017-11-25T15:35:26.722Z,72.54
2017-11-25T15:36:31.637Z,72.22
2017-11-25T15:37:36.528Z,72.11
2017-11-25T15:38:41.180Z,72.08
2017-11-25T15:39:46.450Z,72.05
2017-11-25T15:40:53.933Z,71.95
2017-11-25T15:41:58.759Z,71.76
2017-11-25T15:43:04.841Z,71.63
2017-11-25T15:44:09.560Z,71.59
2017-11-25T15:45:13.980Z,71.68
2017-11-25T15:46:18.618Z,71.60
2017-11-25T15:47:23.924Z,71.62
2017-11-25T15:48:28.598Z,71.71
2017-11-25T15:49:34.867Z,71.81
2017-11-25T15:50:39.746Z,71.90
2017-11-25T15:51:44.470Z,71.96
2017-11-25T15:52:48.976Z,71.99
2017-11-25T15:53:53.437Z,72.03
2017-11-25T15:54:57.995Z,72.13
2017-11-25T15:56:02.328Z,72.37
2017-11-25T15:57:07.156Z,72.33
2017-11-25T15:58:12.992Z,72.29
2017-11-25T15:59:18.327Z,72.31
2017-11-25T16:00:24.679Z,72.42
2017-11-25T16:01:29.804Z,72.47
2017-11-25T16:02:35.147Z,72.52
2017-11-25T16:03:41.131Z,72.88
2017-11-25T16:04:45.697Z,73.25
2017-11-25T16:05:51.129Z,73.06
2017-11-25T16:06:56.531Z,72.88
2017-11-25T16:08:01.007Z,73.03
2017-11-25T16:09:05.845Z,73.25
2017-11-25T16:10:10.369Z,73.33
2017-11-25T16:11:15.536Z,73.25
2017-11-25T16:12:21.255Z,73.43
2017-11-25T16:13:26.955Z,73.30
2017-11-25T16:14:31.912Z,73.23
2017-11-25T16:15:36.565Z,73.03
2017-11-25T16:16:41.808Z,72.99
2017-11-25T16:17:46.203Z,72.95
2017-11-25T16:18:50.698Z,73.00
2017-11-25T16:19:55.232Z,73.05
2017-11-25T16:20:59.832Z,73.13
2017-11-25T16:22:05.069Z,72.99
2017-11-25T16:23:09.693Z,72.40
2017-11-25T16:24:14.507Z,72.09
2017-11-25T16:25:19.423Z,72.14
2017-11-25T16:26:24.610Z,72.31
2017-11-25T16:27:29.318Z,72.61
2017-11-25T16:28:34.492Z,72.67
2017-11-25T16:29:39.114Z,72.81
2017-11-25T16:30:45.163Z,72.82
2017-11-25T16:31:50.714Z,72.64
2017-11-25T16:32:56.020Z,72.73
2017-11-25T16:34:01.248Z,72.88
2017-11-25T16:35:05.522Z,72.76
2017-11-25T16:36:10.477Z,72.69
2017-11-25T16:37:15.833Z,72.77
2017-11-25T16:38:21.348Z,73.15
2017-11-25T16:39:26.488Z,73.13
2017-11-25T16:40:31.980Z,73.17
2017-11-25T16:41:36.524Z,73.07
2017-11-25T16:42:41.698Z,73.06
2017-11-25T16:43:46.065Z,72.97
2017-11-25T16:44:50.307Z,72.85
2017-11-25T16:45:54.800Z,72.78
2017-11-25T16:47:00.109Z,72.91
2017-11-25T16:48:15.937Z,73.04
2017-11-25T16:49:21.069Z,72.96
2017-11-25T16:50:25.489Z,73.17
2017-11-25T16:51:29.831Z,73.25
2017-11-25T16:52:34.978Z,73.40
2017-11-25T16:53:40.287Z,73.42
2017-11-25T16:54:46.954Z,73.53
2017-11-25T16:55:51.203Z,73.50
2017-11-25T16:56:57.847Z,73.64
2017-11-25T16:58:02.651Z,73.77
2017-11-25T16:59:07.768Z,73.85
2017-11-25T17:00:12.925Z,73.99
2017-11-25T17:01:17.994Z,73.99
2017-11-25T17:02:22.175Z,74.07
2017-11-25T17:03:26.362Z,73.85
2017-11-25T17:04:31.398Z,73.77
2017-11-25T17:05:35.551Z,73.50
2017-11-25T17:06:40.658Z,73.50
2017-11-25T17:07:44.920Z,73.69
2017-11-25T17:08:49.605Z,73.80
2017-11-25T17:09:53.940Z,73.90
2017-11-25T17:10:58.250Z,74.11
2017-11-25T17:12:02.603Z,74.14
2017-11-25T17:13:06.870Z,74.37
2017-11-25T17:14:11.204Z,74.52
2017-11-25T17:15:15.758Z,74.62
2017-11-25T17:16:20.064Z,74.75
2017-11-25T17:17:24.269Z,74.89
2017-11-25T17:18:29.334Z,75.18
2017-11-25T17:19:34.009Z,75.21
2017-11-25T17:20:39.116Z,75.20
2017-11-25T17:21:44.161Z,75.35
2017-11-25T17:22:48.468Z,75.31
2017-11-25T17:23:53.225Z,75.15
2017-11-25T17:24:58.007Z,75.04
2017-11-25T17:26:04.177Z,75.05
2017-11-25T17:27:08.510Z,75.18
2017-11-25T17:28:13.693Z,75.18
2017-11-25T17:29:19.123Z,75.18
2017-11-25T17:30:24.769Z,75.08
2017-11-25T17:31:29.977Z,75.14
2017-11-25T17:32:35.266Z,75.40
2017-11-25T17:33:39.847Z,75.15
2017-11-25T17:34:44.460Z,75.01
2017-11-25T17:35:49.885Z,75.08
2017-11-25T17:36:55.219Z,75.15
2017-11-25T17:38:01.172Z,75.37
2017-11-25T17:39:06.472Z,75.35
2017-11-25T17:40:11.007Z,75.40
2017-11-25T17:41:18.244Z,75.45
2017-11-25T17:42:22.855Z,75.56
2017-11-25T17:43:28.083Z,75.34
2017-11-25T17:44:32.945Z,75.15
2017-11-25T17:45:37.869Z,75.20
2017-11-25T17:46:44.371Z,75.15
2017-11-25T17:47:50.058Z,75.06
2017-11-25T17:48:54.996Z,75.16
2017-11-25T17:50:00.361Z,75.21
2017-11-25T17:51:05.248Z,75.37
2017-11-25T17:52:10.676Z,75.34
2017-11-25T17:53:15.861Z,75.42
2017-11-25T17:54:21.241Z,75.40
2017-11-25T17:55:26.711Z,75.22
2017-11-25T17:56:31.329Z,75.33
2017-11-25T17:57:35.797Z,75.44
2017-11-25T17:58:41.324Z,75.51
2017-11-25T17:59:47.142Z,75.56
2017-11-25T18:00:52.406Z,75.72
2017-11-25T18:01:57.910Z,75.73
2017-11-25T18:03:02.593Z,75.64
2017-11-25T18:04:07.117Z,75.80
2017-11-25T18:05:12.449Z,75.85
2017-11-25T18:06:21.119Z,75.86
2017-11-25T18:07:26.650Z,75.87
2017-11-25T18:08:31.878Z,76.00
2017-11-25T18:09:37.147Z,76.07
2017-11-25T18:10:41.721Z,75.95
2017-11-25T18:11:46.971Z,75.95
2017-11-25T18:12:52.177Z,75.98
2017-11-25T18:13:56.763Z,76.05
2017-11-25T18:15:01.320Z,76.19
2017-11-25T18:16:08.089Z,76.37
2017-11-25T18:17:12.532Z,76.40
2017-11-25T18:18:17.915Z,76.36
2017-11-25T18:19:22.400Z,76.19
2017-11-25T18:20:27.346Z,76.32
2017-11-25T18:21:32.688Z,76.43
2017-11-25T18:22:41.172Z,76.34
2017-11-25T18:23:47.009Z,76.57
2017-11-25T18:24:51.544Z,76.64
2017-11-25T18:25:57.639Z,76.69
2017-11-25T18:27:02.833Z,76.64
2017-11-25T18:28:08.929Z,76.60
2017-11-25T18:29:14.517Z,76.54
2017-11-25T18:30:19.357Z,76.42
2017-11-25T18:31:25.073Z,76.46
2017-11-25T18:32:30.674Z,76.68
2017-11-25T18:33:35.249Z,76.70
2017-11-25T18:34:39.948Z,76.78
2017-11-25T18:35:45.334Z,76.93
2017-11-25T18:36:51.218Z,76.99
2017-11-25T18:37:56.855Z,76.89
2017-11-25T18:39:02.320Z,76.94
2017-11-25T18:40:06.902Z,77.07
2017-11-25T18:41:11.930Z,77.11
2017-11-25T18:42:17.381Z,77.25
2017-11-25T18:43:21.910Z,77.32
2017-11-25T18:44:27.515Z,77.48
2017-11-25T18:45:33.768Z,77.52
2017-11-25T18:46:39.114Z,77.63
2017-11-25T18:47:44.079Z,77.67
2017-11-25T18:48:49.556Z,77.83
2017-11-25T18:49:54.811Z,77.69
2017-11-25T18:50:59.334Z,77.79
2017-11-25T18:52:04.027Z,77.87
2017-11-25T18:53:10.831Z,78.02
2017-11-25T18:54:15.313Z,78.06
2017-11-25T18:55:20.113Z,78.14
2017-11-25T18:56:25.472Z,78.42
2017-11-25T18:57:30.051Z,78.69
2017-11-25T18:58:35.034Z,78.79
2017-11-25T18:59:41.134Z,78.87
2017-11-25T19:00:46.668Z,78.99
2017-11-25T19:01:51.999Z,79.07
2017-11-25T19:02:57.317Z,78.99
2017-11-25T19:04:02.878Z,78.94
2017-11-25T19:05:07.998Z,78.85
2017-11-25T19:06:12.517Z,78.87
2017-11-25T19:07:17.353Z,78.90
2017-11-25T19:08:22.872Z,78.98
2017-11-25T19:09:29.534Z,79.03
2017-11-25T19:10:35.076Z,79.08
2017-11-25T19:11:39.833Z,79.12
2017-11-25T19:12:44.505Z,79.15
2017-11-25T19:13:49.620Z,79.08
2017-11-25T19:14:54.955Z,79.03
2017-11-25T19:15:59.471Z,79.06
2017-11-25T19:17:05.720Z,79.07
2017-11-25T19:18:11.049Z,79.04
2017-11-25T19:19:16.430Z,78.97
2017-11-25T19:20:20.999Z,78.89
2017-11-25T19:21:26.326Z,79.05
2017-11-25T19:22:32.003Z,79.18
2017-11-25T19:23:36.491Z,79.33
2017-11-25T19:24:42.110Z,79.23
2017-11-25T19:25:46.656Z,79.23
2017-11-25T19:26:51.402Z,79.20
2017-11-25T19:27:57.520Z,79.11
2017-11-25T19:29:02.929Z,79.05
2017-11-25T19:30:08.663Z,78.95
2017-11-25T19:31:13.685Z,78.92
2017-11-25T19:32:18.822Z,78.97
2017-11-25T19:33:25.428Z,79.03
2017-11-25T19:34:30.104Z,79.09
2017-11-25T19:35:35.593Z,78.99
2017-11-25T19:36:41.073Z,79.06
2017-11-25T19:37:47.020Z,79.25
2017-11-25T19:38:53.170Z,79.18
2017-11-25T19:39:58.349Z,79.12
2017-11-25T19:41:03.571Z,79.19
2017-11-25T19:42:09.679Z,79.20
2017-11-25T19:43:15.166Z,79.20
2017-11-25T19:44:19.754Z,79.30
2017-11-25T19:45:24.248Z,79.36
2017-11-25T19:46:30.487Z,79.38
2017-11-25T19:47:35.877Z,79.37
2017-11-25T19:48:40.539Z,79.39
2017-11-25T19:49:46.276Z,79.59
2017-11-25T19:50:52.441Z,79.62
2017-11-25T19:51:57.935Z,79.65
2017-11-25T19:53:02.506Z,79.70
2017-11-25T19:54:06.993Z,79.69
2017-11-25T19:55:12.319Z,79.69
2017-11-25T19:56:16.868Z,79.76
2017-11-25T19:57:21.548Z,79.74
2017-11-25T19:58:26.879Z,79.52
2017-11-25T19:59:32.116Z,79.43
2017-11-25T20:00:37.869Z,79.65
2017-11-25T20:01:43.045Z,80.05
2017-11-25T20:02:48.409Z,80.12
2017-11-25T20:03:53.667Z,80.29
2017-11-25T20:04:58.140Z,80.40
2017-11-25T20:06:02.663Z,80.59
2017-11-25T20:07:08.405Z,80.71
2017-11-25T20:08:13.945Z,80.79
2017-11-25T20:09:19.182Z,80.80
2017-11-25T20:10:25.369Z,80.90
2017-11-25T20:11:30.652Z,80.95
2017-11-25T20:12:36.378Z,81.10
2017-11-25T20:13:40.980Z,81.21
2017-11-25T20:14:47.364Z,81.15
2017-11-25T20:15:53.192Z,81.01
2017-11-25T20:16:58.455Z,81.16
2017-11-25T20:18:02.924Z,81.13
2017-11-25T20:19:08.808Z,81.15
2017-11-25T20:20:13.407Z,81.23
2017-11-25T20:21:18.696Z,81.27
2017-11-25T20:22:24.710Z,81.18
2017-11-25T20:23:29.283Z,81.13
2017-11-25T20:24:34.165Z,81.04
2017-11-25T20:25:39.539Z,81.18
2017-11-25T20:26:46.727Z,81.18
2017-11-25T20:27:52.754Z,81.10
2017-11-25T20:28:58.752Z,81.02
2017-11-25T20:30:03.649Z,81.03
2017-11-25T20:31:09.771Z,81.06
2017-11-25T20:32:14.213Z,81.02
2017-11-25T20:33:20.332Z,80.95
2017-11-25T20:34:24.867Z,80.96
2017-11-25T20:35:33.594Z,80.97
2017-11-25T20:36:38.916Z,80.99
2017-11-25T20:37:44.445Z,81.04
2017-11-25T20:38:50.440Z,80.98
2017-11-25T20:39:55.280Z,81.01
2017-11-25T20:40:59.797Z,81.04
2017-11-25T20:42:04.291Z,80.97
2017-11-25T20:43:08.766Z,80.92
2017-11-25T20:44:13.279Z,80.88
2017-11-25T20:45:19.157Z,80.75
2017-11-25T20:46:23.677Z,80.66
2017-11-25T20:47:28.135Z,80.65
2017-11-25T20:48:34.383Z,80.57
2017-11-25T20:49:39.712Z,80.48
2017-11-25T20:50:45.062Z,80.43
2017-11-25T20:51:49.676Z,80.37
2017-11-25T20:52:55.103Z,80.31
2017-11-25T20:54:00.430Z,80.25
2017-11-25T20:55:04.895Z,80.19
2017-11-25T20:56:10.776Z,80.12
2017-11-25T20:57:16.346Z,79.98
2017-11-25T20:58:20.954Z,80.01
2017-11-25T20:59:25.423Z,79.88
2017-11-25T21:00:29.890Z,79.75
2017-11-25T21:01:36.116Z,79.75
2017-11-25T21:02:41.607Z,79.70
2017-11-25T21:03:46.221Z,79.68
2017-11-25T21:04:51.926Z,79.71
2017-11-25T21:05:57.130Z,79.73
2017-11-25T21:07:02.527Z,79.72
2017-11-25T21:08:07.805Z,79.65
2017-11-25T21:09:13.185Z,79.60
2017-11-25T21:10:17.942Z,79.45
2017-11-25T21:11:23.272Z,79.42
2017-11-25T21:12:28.527Z,79.45
2017-11-25T21:13:33.043Z,79.42
2017-11-25T21:14:38.755Z,79.47
2017-11-25T21:15:44.014Z,79.39
2017-11-25T21:16:49.519Z,79.40
2017-11-25T21:17:54.827Z,79.36
2017-11-25T21:19:00.049Z,79.27
2017-11-25T21:20:04.557Z,79.20
2017-11-25T21:21:09.006Z,79.19
2017-11-25T21:22:14.236Z,79.17
2017-11-25T21:23:19.450Z,79.12
2017-11-25T21:24:25.385Z,79.17
2017-11-25T21:25:30.843Z,79.23
2017-11-25T21:26:36.107Z,79.19
2017-11-25T21:27:40.701Z,79.19
2017-11-25T21:28:45.862Z,79.23
2017-11-25T21:29:50.405Z,79.14
2017-11-25T21:30:55.063Z,79.17
2017-11-25T21:31:59.505Z,79.16
2017-11-25T21:33:04.098Z,79.17
2017-11-25T21:34:08.665Z,79.19
2017-11-25T21:35:14.728Z,79.21
2017-11-25T21:36:19.985Z,79.16
2017-11-25T21:37:24.421Z,79.35
2017-11-25T21:38:28.899Z,79.31
2017-11-25T21:39:33.366Z,79.19
2017-11-25T21:40:38.742Z,79.24
2017-11-25T21:41:43.154Z,79.27
2017-11-25T21:42:47.685Z,79.19
2017-11-25T21:43:52.384Z,79.17
2017-11-25T21:44:56.898Z,79.16
2017-11-25T21:46:01.388Z,79.11
2017-11-25T21:47:06.985Z,79.04
2017-11-25T21:48:11.880Z,79.07
2017-11-25T21:49:16.395Z,79.15
2017-11-25T21:50:20.865Z,79.16
2017-11-25T21:51:26.175Z,79.23
2017-11-25T21:52:30.734Z,79.31
2017-11-25T21:53:36.992Z,79.19
2017-11-25T21:54:41.436Z,79.05
2017-11-25T21:55:46.512Z,79.02
2017-11-25T21:56:51.246Z,79.03
2017-11-25T21:57:55.687Z,79.07
2017-11-25T21:59:01.094Z,79.16
2017-11-25T22:00:05.585Z,79.12
2017-11-25T22:01:10.108Z,79.03
2017-11-25T22:02:14.707Z,79.02
2017-11-25T22:03:19.163Z,79.04
2017-11-25T22:04:23.701Z,79.09
2017-11-25T22:05:28.492Z,79.19
2017-11-25T22:06:33.063Z,79.27
2017-11-25T22:07:38.700Z,79.22
2017-11-25T22:08:43.936Z,79.23
2017-11-25T22:09:48.444Z,79.30
2017-11-25T22:10:53.833Z,79.49
2017-11-25T22:11:58.284Z,79.74
2017-11-25T22:13:04.263Z,79.94
2017-11-25T22:14:08.783Z,79.87
2017-11-25T22:15:13.217Z,79.92
2017-11-25T22:16:19.135Z,79.89
2017-11-25T22:17:24.479Z,80.01
2017-11-25T22:18:28.932Z,80.06
2017-11-25T22:19:34.683Z,79.97
2017-11-25T22:20:39.181Z,80.03
2017-11-25T22:21:43.596Z,80.03
2017-11-25T22:22:49.463Z,80.10
2017-11-25T22:23:54.878Z,80.23
2017-11-25T22:24:59.547Z,80.29
2017-11-25T22:26:05.527Z,80.18
2017-11-25T22:27:10.642Z,80.29
2017-11-25T22:28:15.243Z,80.42
2017-11-25T22:29:21.434Z,80.54
2017-11-25T22:30:27.350Z,80.62
2017-11-25T22:31:32.602Z,80.62
2017-11-25T22:32:36.998Z,80.68
2017-11-25T22:33:41.478Z,80.75
2017-11-25T22:34:46.003Z,80.87
2017-11-25T22:35:50.448Z,80.94
2017-11-25T22:36:56.197Z,81.06
2017-11-25T22:38:02.009Z,80.93
2017-11-25T22:39:08.118Z,80.90
2017-11-25T22:40:12.710Z,80.93
2017-11-25T22:41:17.219Z,80.91
2017-11-25T22:42:22.749Z,80.87
2017-11-25T22:43:27.040Z,80.82
2017-11-25T22:44:31.484Z,80.79
2017-11-25T22:45:36.847Z,80.81
2017-11-25T22:46:41.359Z,80.81
2017-11-25T22:47:45.749Z,80.72
2017-11-25T22:48:50.103Z,80.70
2017-11-25T22:49:54.447Z,80.67
2017-11-25T22:51:01.206Z,80.58
2017-11-25T22:52:07.203Z,80.39
2017-11-25T22:53:11.679Z,80.30
2017-11-25T22:54:15.989Z,80.26
2017-11-25T22:55:20.336Z,80.20
2017-11-25T22:56:24.685Z,80.15
2017-11-25T22:57:29.664Z,80.09
2017-11-25T22:58:34.617Z,80.07
2017-11-25T22:59:39.674Z,80.08
2017-11-25T23:00:44.876Z,80.17
2017-11-25T23:01:50.370Z,80.14
2017-11-25T23:02:56.425Z,80.14
2017-11-25T23:04:01.487Z,80.20
2017-11-25T23:05:07.964Z,80.25
2017-11-25T23:06:12.300Z,80.31
2017-11-25T23:07:16.744Z,80.30
2017-11-25T23:08:21.783Z,80.39
2017-11-25T23:09:27.981Z,80.35
2017-11-25T23:10:37.983Z,80.37
2017-11-25T23:11:44.799Z,80.33
2017-11-25T23:12:49.470Z,80.29
2017-11-25T23:13:54.016Z,80.23
2017-11-25T23:14:58.294Z,80.17
2017-11-25T23:16:03.528Z,80.10
2017-11-25T23:17:08.166Z,80.14
2017-11-25T23:18:13.860Z,80.14
2017-11-25T23:19:18.324Z,80.10
2017-11-25T23:20:24.183Z,80.08
2017-11-25T23:21:28.416Z,80.01
2017-11-25T23:22:32.651Z,79.89
2017-11-25T23:23:36.874Z,79.82
2017-11-25T23:24:41.287Z,79.71
2017-11-25T23:25:45.769Z,79.65
2017-11-25T23:26:50.823Z,79.58
2017-11-25T23:27:55.164Z,79.50
2017-11-25T23:28:59.507Z,79.38
2017-11-25T23:30:03.773Z,79.27
2017-11-25T23:31:08.043Z,79.24
2017-11-25T23:32:12.975Z,79.25
2017-11-25T23:33:17.139Z,79.22
2017-11-25T23:34:21.331Z,79.16
2017-11-25T23:35:25.490Z,79.14
2017-11-25T23:36:30.406Z,79.11
2017-11-25T23:37:34.575Z,79.07
2017-11-25T23:38:38.735Z,79.08
2017-11-25T23:39:42.927Z,79.19
2017-11-25T23:40:47.088Z,79.32
2017-11-25T23:41:51.241Z,79.44
2017-11-25T23:42:55.406Z,79.59
2017-11-25T23:44:00.752Z,79.64
2017-11-25T23:46:21.048Z,79.66
2017-11-25T23:47:26.775Z,79.63
2017-11-25T23:48:32.554Z,79.65
2017-11-25T23:49:39.045Z,79.74
2017-11-25T23:50:45.527Z,79.95
2017-11-25T23:51:51.198Z,79.94
2017-11-25T23:52:56.923Z,79.82
2017-11-25T23:54:02.635Z,79.93
2017-11-25T23:55:08.154Z,80.15
2017-11-25T23:56:13.900Z,80.23
2017-11-25T23:57:19.658Z,80.41
2017-11-25T23:58:25.404Z,80.41
2017-11-25T23:59:31.119Z,80.40
